createdAt,value
2022-11-29T00:00:33.468Z,99963.69
2022-11-29T00:03:10.120Z,99972.44
2022-11-29T00:05:48.857Z,99972.44
2022-11-29T00:08:29.560Z,99975.91
2022-11-29T00:11:16.575Z,99980.25
2022-11-29T00:13:53.507Z,99976.75
2022-11-29T00:16:25.314Z,99978.50
2022-11-29T00:19:00.360Z,99983.78
2022-11-29T00:21:39.269Z,99978.56
2022-11-29T00:24:15.700Z,99975.03
2022-11-29T00:26:56.384Z,99971.53
2022-11-29T00:29:27.319Z,99973.28
2022-11-29T00:31:57.244Z,99975.91
2022-11-29T00:37:25.258Z,99969.78
2022-11-29T00:40:02.035Z,99974.13
2022-11-29T00:42:43.126Z,99976.69
2022-11-29T00:45:16.551Z,99975.81
2022-11-29T00:47:50.518Z,99980.16
2022-11-29T00:50:23.675Z,99977.56
2022-11-29T00:53:00.517Z,99982.78
2022-11-29T00:55:32.911Z,99981.91
2022-11-29T00:58:08.076Z,100001.91
2022-11-29T01:00:43.029Z,99985.31
2022-11-29T01:03:17.933Z,99981.03
2022-11-29T01:05:54.364Z,99986.25
2022-11-29T01:08:35.321Z,99972.25
2022-11-29T01:11:10.005Z,99974.88
2022-11-29T01:13:48.583Z,99976.63
2022-11-29T01:16:23.036Z,99979.28
2022-11-29T01:18:52.074Z,99983.63
2022-11-29T01:21:27.204Z,99983.66
2022-11-29T01:24:03.660Z,99988.88
2022-11-29T01:26:43.114Z,99993.22
2022-11-29T01:29:22.987Z,100001.13
2022-11-29T01:31:56.971Z,99995.00
2022-11-29T01:34:30.834Z,99988.00
2022-11-29T01:37:08.101Z,99988.00
2022-11-29T01:39:57.565Z,99983.66
2022-11-29T01:42:33.692Z,99991.47
2022-11-29T01:45:20.122Z,99992.34
2022-11-29T01:48:00.585Z,99996.69
2022-11-29T01:50:39.143Z,99998.44
2022-11-29T01:53:13.540Z,100009.72
2022-11-29T01:55:53.847Z,99998.44
2022-11-29T01:58:31.164Z,100008.00
2022-11-29T02:01:02.758Z,100003.66
2022-11-29T02:03:31.284Z,100005.44
2022-11-29T02:06:11.825Z,100010.69
2022-11-29T02:08:43.823Z,100007.22
2022-11-29T02:11:44.752Z,100008.97
2022-11-29T02:14:33.403Z,100020.31
2022-11-29T02:17:12.396Z,100009.88
2022-11-29T02:20:06.795Z,100010.75
2022-11-29T02:22:47.347Z,100017.75
2022-11-29T02:25:29.543Z,100020.34
2022-11-29T02:28:42.775Z,100015.97
2022-11-29T02:31:45.650Z,100021.22
2022-11-29T02:34:56.807Z,100028.09
2022-11-29T02:37:59.732Z,100026.28
2022-11-29T02:40:57.424Z,100029.75
2022-11-29T02:44:03.711Z,100029.75
2022-11-29T02:46:56.258Z,100025.41
2022-11-29T02:49:42.041Z,100031.56
2022-11-29T02:52:20.622Z,100028.97
2022-11-29T02:54:56.256Z,100035.06
2022-11-29T02:57:37.166Z,100038.63
2022-11-29T03:00:12.523Z,100035.97
2022-11-29T03:02:55.570Z,100035.97
2022-11-29T03:05:38.104Z,100039.50
2022-11-29T03:08:15.131Z,100042.97
2022-11-29T03:10:57.369Z,100044.72
2022-11-29T03:13:44.497Z,100043.84
2022-11-29T03:16:23.463Z,100047.41
2022-11-29T03:19:05.482Z,100050.84
2022-11-29T03:21:43.764Z,100050.84
2022-11-29T03:24:23.196Z,100044.72
2022-11-29T03:27:00.578Z,100056.97
2022-11-29T03:29:40.434Z,100056.97
2022-11-29T03:32:17.279Z,100050.00
2022-11-29T03:34:59.917Z,100058.72
2022-11-29T03:37:42.821Z,100062.22
2022-11-29T03:40:18.895Z,100059.59
2022-11-29T03:42:57.747Z,100055.28
2022-11-29T03:45:38.198Z,100068.28
2022-11-29T03:48:15.958Z,100064.81
2022-11-29T03:50:57.012Z,100070.88
2022-11-29T03:53:40.151Z,100069.22
2022-11-29T03:56:32.569Z,100077.06
2022-11-29T03:59:17.948Z,100071.84
2022-11-29T04:02:30.362Z,100072.66
2022-11-29T04:05:30.277Z,100072.66
2022-11-29T04:08:32.521Z,100077.88
2022-11-29T04:11:33.074Z,100083.94
2022-11-29T04:14:38.591Z,100082.19
2022-11-29T04:17:48.794Z,100094.38
2022-11-29T04:20:55.956Z,100087.44
2022-11-29T04:24:05.383Z,100094.38
2022-11-29T04:27:09.300Z,100094.31
2022-11-29T04:30:10.629Z,100097.84
2022-11-29T04:33:21.589Z,100099.53
2022-11-29T04:36:30.516Z,100099.59
2022-11-29T04:39:38.810Z,100107.44
2022-11-29T04:42:38.083Z,100105.69
2022-11-29T04:46:02.353Z,100111.81
2022-11-29T04:48:55.659Z,100113.59
2022-11-29T04:51:43.203Z,100104.91
2022-11-29T04:54:30.506Z,100118.03
2022-11-29T04:57:07.337Z,100112.81
2022-11-29T04:59:48.834Z,100117.16
2022-11-29T05:02:37.666Z,100122.38
2022-11-29T05:05:24.992Z,100125.91
2022-11-29T05:08:18.023Z,100123.28
2022-11-29T05:11:06.418Z,100127.59
2022-11-29T05:13:55.512Z,100130.22
2022-11-29T05:16:44.555Z,100136.31
2022-11-29T05:19:43.631Z,100147.63
2022-11-29T05:22:36.719Z,100141.47
2022-11-29T05:25:33.636Z,100154.50
2022-11-29T05:28:13.774Z,100154.47
2022-11-29T05:31:20.665Z,100156.19
2022-11-29T05:34:26.365Z,100160.59
2022-11-29T05:37:13.128Z,100164.00
2022-11-29T05:39:58.695Z,100169.22
2022-11-29T05:42:52.811Z,100167.47
2022-11-29T05:45:31.775Z,100170.09
2022-11-29T05:48:05.889Z,100181.38
2022-11-29T05:50:40.716Z,100180.47
2022-11-29T05:53:16.754Z,100171.75
2022-11-29T05:55:54.053Z,100180.41
2022-11-29T05:58:30.745Z,100186.47
2022-11-29T06:01:18.711Z,100189.91
2022-11-29T06:04:00.195Z,100195.13
2022-11-29T06:06:40.366Z,100191.56
2022-11-29T06:09:17.218Z,100198.53
2022-11-29T06:11:49.738Z,100198.47
2022-11-29T06:14:50.219Z,100198.47
2022-11-29T06:17:43.145Z,100205.41
2022-11-29T06:20:31.477Z,100218.47
2022-11-29T06:23:23.726Z,100213.13
2022-11-29T06:26:07.534Z,100223.63
2022-11-29T06:28:50.559Z,100224.47
2022-11-29T06:31:27.971Z,100233.16
2022-11-29T06:34:11.496Z,100238.34
2022-11-29T06:36:53.410Z,100235.59
2022-11-29T06:39:26.526Z,100239.13
2022-11-29T06:41:55.650Z,100241.69
2022-11-29T06:44:25.839Z,100248.66
2022-11-29T06:47:03.367Z,100240.78
2022-11-29T06:49:38.191Z,100253.78
2022-11-29T06:52:27.925Z,100247.66
2022-11-29T06:55:10.253Z,100251.13
2022-11-29T06:57:54.827Z,100248.53
2022-11-29T07:00:26.946Z,100250.22
2022-11-29T07:03:13.433Z,100254.56
2022-11-29T07:05:44.143Z,100246.69
2022-11-29T07:08:25.159Z,100246.69
2022-11-29T07:11:03.057Z,100252.72
2022-11-29T07:13:34.384Z,100258.78
2022-11-29T07:16:11.225Z,100258.78
2022-11-29T07:18:54.679Z,100257.00
2022-11-29T07:21:47.956Z,100272.63
2022-11-29T07:24:33.025Z,100264.78
2022-11-29T07:27:12.765Z,100273.41
2022-11-29T07:29:49.757Z,100269.94
2022-11-29T07:32:28.526Z,100274.28
2022-11-29T07:35:05.614Z,100278.69
2022-11-29T07:37:45.914Z,100284.72
2022-11-29T07:40:20.729Z,100287.34
2022-11-29T07:43:08.190Z,100294.28
2022-11-29T07:45:38.017Z,100297.78
2022-11-29T07:48:07.194Z,100299.50
2022-11-29T07:50:37.099Z,100293.41
2022-11-29T07:53:18.159Z,100302.19
2022-11-29T07:55:50.335Z,100297.78
2022-11-29T07:58:22.075Z,100308.22
2022-11-29T08:00:50.990Z,100305.59
2022-11-29T08:03:24.621Z,100309.94
2022-11-29T08:05:53.700Z,100310.81
2022-11-29T08:08:25.591Z,100312.63
2022-11-29T08:10:58.619Z,100314.28
2022-11-29T08:13:29.355Z,100319.50
2022-11-29T08:15:59.902Z,100318.66
2022-11-29T08:18:29.798Z,100323.06
2022-11-29T08:21:07.000Z,100317.84
2022-11-29T08:23:36.167Z,100317.00
2022-11-29T08:26:05.762Z,100319.59
2022-11-29T08:28:35.981Z,100317.06
2022-11-29T08:31:10.184Z,100321.41
2022-11-29T08:33:44.932Z,100328.38
2022-11-29T08:36:14.803Z,100326.72
2022-11-29T08:38:44.480Z,100332.84
2022-11-29T08:41:16.322Z,100328.50
2022-11-29T08:43:51.457Z,100339.88
2022-11-29T08:46:21.202Z,100335.56
2022-11-29T08:48:51.006Z,100340.00
2022-11-29T08:51:20.345Z,100341.78
2022-11-29T08:53:53.999Z,100347.97
2022-11-29T08:57:16.498Z,100347.97
2022-11-29T08:59:17.126Z,100348.06
2022-11-29T09:01:46.789Z,100353.34
2022-11-29T09:04:18.096Z,100356.84
2022-11-29T09:06:49.870Z,100363.03
2022-11-29T09:09:19.364Z,100363.03
2022-11-29T09:11:49.754Z,100370.88
2022-11-29T09:14:22.224Z,100370.88
2022-11-29T09:16:50.965Z,100369.06
2022-11-29T09:19:20.742Z,100379.50
2022-11-29T09:21:50.555Z,100379.50
2022-11-29T09:24:21.290Z,100385.56
2022-11-29T09:26:49.852Z,100393.41
2022-11-29T09:29:23.176Z,100397.78
2022-11-29T09:31:53.237Z,100396.81
2022-11-29T09:34:22.710Z,100399.44
2022-11-29T09:36:52.320Z,100400.31
2022-11-29T09:39:21.433Z,100399.44
2022-11-29T09:42:10.262Z,100409.06
2022-11-29T09:44:56.196Z,100414.28
2022-11-29T09:47:39.576Z,100416.91
2022-11-29T09:50:26.080Z,100423.81
2022-11-29T09:53:07.570Z,100421.03
2022-11-29T09:55:57.359Z,100424.44
2022-11-29T09:58:30.465Z,100419.13
2022-11-29T10:01:07.270Z,100429.47
2022-11-29T10:03:47.305Z,100425.06
2022-11-29T10:06:26.330Z,100430.22
2022-11-29T10:09:01.297Z,100424.16
2022-11-29T10:11:37.240Z,100415.56
2022-11-29T10:14:16.229Z,100418.25
2022-11-29T10:16:55.531Z,100422.59
2022-11-29T10:19:33.276Z,100426.97
2022-11-29T10:22:09.546Z,100425.19
2022-11-29T10:24:42.880Z,100426.00
2022-11-29T10:27:18.425Z,100423.47
2022-11-29T10:29:51.376Z,100425.25
2022-11-29T10:32:24.855Z,100429.56
2022-11-29T10:34:57.566Z,100427.91
2022-11-29T10:37:32.606Z,100414.88
2022-11-29T10:40:05.557Z,100421.84
2022-11-29T10:42:49.822Z,100421.03
2022-11-29T10:45:33.191Z,100417.66
2022-11-29T10:48:12.437Z,100422.03
2022-11-29T10:50:44.719Z,100423.00
2022-11-29T10:53:17.379Z,100409.94
2022-11-29T10:55:51.937Z,100422.22
2022-11-29T10:58:28.641Z,100417.97
2022-11-29T11:01:01.570Z,100421.53
2022-11-29T11:03:37.465Z,100422.41
2022-11-29T11:06:14.599Z,100424.16
2022-11-29T11:08:47.455Z,100422.44
2022-11-29T11:11:26.532Z,100418.06
2022-11-29T11:14:03.751Z,100419.72
2022-11-29T11:16:37.721Z,100426.59
2022-11-29T11:19:27.916Z,100416.16
2022-11-29T11:21:58.438Z,100418.72
2022-11-29T11:24:31.724Z,100423.06
2022-11-29T11:27:02.342Z,100428.28
2022-11-29T11:29:37.349Z,100429.09
2022-11-29T11:32:17.439Z,100432.59
2022-11-29T11:34:54.861Z,100421.28
2022-11-29T11:37:27.319Z,100424.75
2022-11-29T11:39:58.081Z,100428.28
2022-11-29T11:42:40.889Z,100426.50
2022-11-29T11:45:31.407Z,100430.91
2022-11-29T11:48:04.132Z,100440.50
2022-11-29T11:50:45.245Z,100433.63
2022-11-29T11:53:22.892Z,100437.19
2022-11-29T11:55:59.463Z,100434.63
2022-11-29T11:58:31.382Z,100435.50
2022-11-29T12:01:06.099Z,100426.84
2022-11-29T12:03:49.489Z,100421.63
2022-11-29T12:06:43.246Z,100427.75
2022-11-29T12:09:21.426Z,100435.63
2022-11-29T12:12:04.641Z,100433.91
2022-11-29T12:14:42.629Z,100436.56
2022-11-29T12:17:21.521Z,100437.41
2022-11-29T12:20:06.503Z,100449.56
2022-11-29T12:22:46.613Z,100440.88
2022-11-29T12:25:23.811Z,100447.84
2022-11-29T12:27:53.314Z,100454.84
2022-11-29T12:30:22.755Z,100456.63
2022-11-29T12:33:04.316Z,100461.75
2022-11-29T12:35:46.820Z,100466.00
2022-11-29T12:38:33.359Z,100463.41
2022-11-29T12:41:13.060Z,100473.84
2022-11-29T12:43:54.914Z,100476.47
2022-11-29T12:46:26.712Z,100483.44
2022-11-29T12:49:02.559Z,100486.06
2022-11-29T12:51:45.820Z,100476.47
2022-11-29T12:54:38.040Z,100483.44
2022-11-29T12:57:16.374Z,100482.63
2022-11-29T13:00:07.315Z,100490.47
2022-11-29T13:02:48.644Z,100486.06
2022-11-29T13:05:37.971Z,100488.66
2022-11-29T13:08:30.128Z,100491.28
2022-11-29T13:11:14.530Z,100492.16
2022-11-29T13:13:46.637Z,100498.28
2022-11-29T13:16:33.266Z,100500.06
2022-11-29T13:19:12.479Z,100498.28
2022-11-29T13:21:48.150Z,100501.78
2022-11-29T13:24:25.016Z,100503.53
2022-11-29T13:26:57.095Z,100502.69
2022-11-29T13:29:28.225Z,100511.41
2022-11-29T13:31:58.958Z,100507.91
2022-11-29T13:34:33.453Z,100510.50
2022-11-29T13:37:14.960Z,100506.13
2022-11-29T13:39:58.266Z,100508.75
2022-11-29T13:42:40.302Z,100512.16
2022-11-29T13:45:22.739Z,100504.31
2022-11-29T13:47:53.373Z,100508.75
2022-11-29T13:50:41.045Z,100505.28
2022-11-29T13:53:16.989Z,100504.44
2022-11-29T13:55:48.763Z,100509.66
2022-11-29T13:58:35.855Z,100514.06
2022-11-29T14:01:09.919Z,100509.75
2022-11-29T14:03:41.135Z,100511.47
2022-11-29T14:06:22.208Z,100507.06
2022-11-29T14:09:26.149Z,100515.81
2022-11-29T14:12:02.704Z,100514.88
2022-11-29T14:14:38.773Z,100517.50
2022-11-29T14:17:33.918Z,100515.72
2022-11-29T14:20:44.546Z,100515.72
2022-11-29T14:23:28.160Z,100518.25
2022-11-29T14:26:28.641Z,100524.41
2022-11-29T14:29:00.311Z,100525.22
2022-11-29T14:31:55.223Z,100531.28
2022-11-29T14:34:51.345Z,100532.09
2022-11-29T14:37:34.904Z,100529.47
2022-11-29T14:40:17.019Z,100534.69
2022-11-29T14:42:49.471Z,100533.00
2022-11-29T14:45:31.164Z,100539.91
2022-11-29T14:48:03.124Z,100545.13
2022-11-29T14:50:37.325Z,100543.38
2022-11-29T14:53:07.909Z,100543.38
2022-11-29T14:55:38.846Z,100547.72
2022-11-29T14:58:21.242Z,100542.41
2022-11-29T15:01:10.407Z,100545.75
2022-11-29T15:03:50.389Z,100545.69
2022-11-29T15:06:26.264Z,100543.84
2022-11-29T15:09:05.230Z,100549.84
2022-11-29T15:11:57.792Z,100546.44
2022-11-29T15:14:37.207Z,100551.66
2022-11-29T15:17:20.981Z,100555.16
2022-11-29T15:20:20.243Z,100555.06
2022-11-29T15:22:54.284Z,100563.81
2022-11-29T15:25:26.660Z,100557.69
2022-11-29T15:27:58.221Z,100563.75
2022-11-29T15:30:37.778Z,100553.31
2022-11-29T15:33:24.353Z,100566.44
2022-11-29T15:36:05.808Z,100573.34
2022-11-29T15:38:45.599Z,100568.22
2022-11-29T15:41:25.277Z,100574.28
2022-11-29T15:44:00.490Z,100581.19
2022-11-29T15:46:35.046Z,100584.63
2022-11-29T15:49:17.168Z,100577.66
2022-11-29T15:51:51.966Z,100588.97
2022-11-29T15:54:31.295Z,100584.50
2022-11-29T15:57:04.116Z,100587.94
2022-11-29T15:59:39.500Z,100589.63
2022-11-29T16:02:17.825Z,100600.81
2022-11-29T16:04:50.664Z,100598.13
2022-11-29T16:07:24.501Z,100595.53
2022-11-29T16:10:03.561Z,100596.34
2022-11-29T16:12:35.940Z,100604.09
2022-11-29T16:15:27.258Z,100604.03
2022-11-29T16:17:58.763Z,100610.09
2022-11-29T16:20:31.108Z,100603.91
2022-11-29T16:23:16.921Z,100599.53
2022-11-29T16:25:57.475Z,100602.13
2022-11-29T16:28:37.604Z,100598.59
2022-11-29T16:31:18.132Z,100598.59
2022-11-29T16:34:22.856Z,100598.59
2022-11-29T16:37:08.518Z,100601.19
2022-11-29T16:39:43.986Z,100602.94
2022-11-29T16:42:29.347Z,100601.19
2022-11-29T16:45:29.934Z,100599.38
2022-11-29T16:48:16.345Z,100604.59
2022-11-29T16:51:09.258Z,100606.28
2022-11-29T16:53:52.282Z,100607.06
2022-11-29T16:56:31.735Z,100610.53
2022-11-29T16:59:20.945Z,100612.16
2022-11-29T17:02:02.576Z,100606.06
2022-11-29T17:04:39.873Z,100603.38
2022-11-29T17:07:16.212Z,100613.00
2022-11-29T17:09:46.308Z,100616.41
2022-11-29T17:12:20.073Z,100611.22
2022-11-29T17:14:52.487Z,100607.63
2022-11-29T17:17:24.275Z,100608.56
2022-11-29T17:19:57.321Z,100605.88
2022-11-29T17:22:30.980Z,100598.88
2022-11-29T17:25:05.491Z,100602.28
2022-11-29T17:27:42.975Z,100610.97
2022-11-29T17:30:19.400Z,100607.38
2022-11-29T17:32:57.305Z,100612.47
2022-11-29T17:35:30.292Z,100605.28
2022-11-29T17:38:05.893Z,100612.16
2022-11-29T17:40:44.069Z,100605.16
2022-11-29T17:43:23.410Z,100611.19
2022-11-29T17:45:58.085Z,100606.81
2022-11-29T17:48:35.770Z,100607.66
2022-11-29T17:51:29.258Z,100608.44
2022-11-29T17:54:11.158Z,100613.66
2022-11-29T17:56:45.203Z,100617.13
2022-11-29T17:59:16.407Z,100618.88
2022-11-29T18:01:47.757Z,100616.28
2022-11-29T18:04:25.050Z,100624.09
2022-11-29T18:07:00.245Z,100627.53
2022-11-29T18:09:35.268Z,100629.31
2022-11-29T18:12:10.255Z,100626.66
2022-11-29T18:14:47.845Z,100627.53
2022-11-29T18:17:21.198Z,100629.19
2022-11-29T18:20:00.324Z,100634.41
2022-11-29T18:22:33.560Z,100635.16
2022-11-29T18:25:37.060Z,100629.84
2022-11-29T18:28:07.974Z,100641.13
2022-11-29T18:30:41.792Z,100628.84
2022-11-29T18:33:22.184Z,100633.09
2022-11-29T18:35:58.677Z,100633.84
2022-11-29T18:38:31.915Z,100635.56
2022-11-29T18:41:17.229Z,100632.97
2022-11-29T18:43:49.541Z,100636.31
2022-11-29T18:46:30.222Z,100637.13
2022-11-29T18:49:15.135Z,100645.78
2022-11-29T18:51:48.148Z,100638.63
2022-11-29T18:54:22.536Z,100637.66
2022-11-29T18:56:59.109Z,100637.53
2022-11-29T18:59:29.927Z,100642.69
2022-11-29T19:02:09.379Z,100640.84
2022-11-29T19:04:43.228Z,100639.88
2022-11-29T19:07:17.947Z,100648.50
2022-11-29T19:09:52.322Z,100649.34
2022-11-29T19:12:23.708Z,100656.25
2022-11-29T19:14:57.327Z,100653.56
2022-11-29T19:17:30.654Z,100656.19
2022-11-29T19:20:02.162Z,100654.41
2022-11-29T19:22:36.763Z,100652.69
2022-11-29T19:25:09.367Z,100648.34
2022-11-29T19:27:43.951Z,100663.13
2022-11-29T19:30:17.661Z,100654.47
2022-11-29T19:32:52.869Z,100664.00
2022-11-29T19:35:26.198Z,100657.97
2022-11-29T19:37:58.815Z,100660.59
2022-11-29T19:40:41.018Z,100661.41
2022-11-29T19:43:13.019Z,100663.13
2022-11-29T19:45:48.395Z,100660.41
2022-11-29T19:48:21.914Z,100658.56
2022-11-29T19:50:54.526Z,100662.09
2022-11-29T19:53:30.750Z,100667.31
2022-11-29T19:56:07.164Z,100661.91
2022-11-29T19:58:45.363Z,100668.94
2022-11-29T20:01:23.019Z,100675.78
2022-11-29T20:04:06.652Z,100677.41
2022-11-29T20:06:39.775Z,100680.91
2022-11-29T20:09:17.374Z,100682.63
2022-11-29T20:11:48.544Z,100677.41
2022-11-29T20:14:20.539Z,100690.44
2022-11-29T20:17:01.207Z,100690.38
2022-11-29T20:19:38.926Z,100687.84
2022-11-29T20:22:13.906Z,100698.25
2022-11-29T20:24:47.235Z,100698.13
2022-11-29T20:27:23.984Z,100697.16
2022-11-29T20:29:55.195Z,100702.28
2022-11-29T20:32:31.673Z,100698.78
2022-11-29T20:35:06.998Z,100696.19
2022-11-29T20:38:06.053Z,100704.84
2022-11-29T20:40:49.956Z,100701.41
2022-11-29T20:43:32.436Z,100704.84
2022-11-29T20:46:06.850Z,100706.47
2022-11-29T20:48:38.326Z,100702.13
2022-11-29T20:51:16.323Z,100698.56
2022-11-29T20:53:50.931Z,100700.22
2022-11-29T20:56:35.281Z,100702.00
2022-11-29T20:59:16.995Z,100707.97
2022-11-29T21:01:49.562Z,100707.97
2022-11-29T21:04:27.096Z,100707.81
2022-11-29T21:07:08.335Z,100707.72
2022-11-29T21:09:41.074Z,100704.25
2022-11-29T21:12:17.536Z,100705.03
2022-11-29T21:14:52.726Z,100704.25
2022-11-29T21:17:33.946Z,100712.06
2022-11-29T21:20:07.719Z,100707.66
2022-11-29T21:22:51.434Z,100707.59
2022-11-29T21:25:31.232Z,100711.09
2022-11-29T21:28:10.179Z,100715.31
2022-11-29T21:30:45.476Z,100714.34
2022-11-29T21:33:18.329Z,100720.25
2022-11-29T21:35:54.052Z,100715.91
2022-11-29T21:38:35.984Z,100724.63
2022-11-29T21:41:08.277Z,100716.75
2022-11-29T21:44:05.636Z,100704.63
2022-11-29T21:46:38.558Z,100712.34
2022-11-29T21:49:13.097Z,100715.84
2022-11-29T21:51:45.645Z,100712.44
2022-11-29T21:54:20.914Z,100714.06
2022-11-29T21:56:52.865Z,100719.25
2022-11-29T21:59:27.422Z,100720.91
2022-11-29T22:02:02.563Z,100724.38
2022-11-29T22:04:42.704Z,100731.31
2022-11-29T22:07:19.753Z,100729.53
2022-11-29T22:09:54.445Z,100723.50
2022-11-29T22:12:34.135Z,100716.56
2022-11-29T22:15:08.979Z,100722.69
2022-11-29T22:17:52.211Z,100723.66
2022-11-29T22:20:26.763Z,100728.06
2022-11-29T22:23:00.456Z,100720.28
2022-11-29T22:25:40.235Z,100723.00
2022-11-29T22:28:13.477Z,100724.75
2022-11-29T22:30:47.495Z,100717.03
2022-11-29T22:33:23.544Z,100715.41
2022-11-29T22:35:57.834Z,100715.53
2022-11-29T22:38:34.034Z,100716.44
2022-11-29T22:41:10.576Z,100716.44
2022-11-29T22:43:45.864Z,100720.84
2022-11-29T22:46:22.860Z,100731.19
2022-11-29T22:48:56.811Z,100718.25
2022-11-29T22:51:31.167Z,100722.63
2022-11-29T22:54:07.085Z,100707.81
2022-11-29T22:56:44.823Z,100713.03
2022-11-29T22:59:17.314Z,100709.59
2022-11-29T23:02:00.281Z,100712.09
2022-11-29T23:04:33.438Z,100716.44
2022-11-29T23:07:08.016Z,100715.53
2022-11-29T23:09:40.961Z,100713.81
2022-11-29T23:12:20.344Z,100711.16
2022-11-29T23:14:58.306Z,100718.91
2022-11-29T23:17:32.750Z,100724.94
2022-11-29T23:20:09.926Z,100742.34
2022-11-29T23:22:42.877Z,100735.34
2022-11-29T23:25:15.016Z,100739.66
2022-11-29T23:27:53.593Z,100742.19
2022-11-29T23:30:29.751Z,100735.19
2022-11-29T23:33:08.855Z,100731.63
2022-11-29T23:35:42.489Z,100736.84
2022-11-29T23:38:19.016Z,100738.53
2022-11-29T23:40:53.448Z,100738.63
2022-11-29T23:43:36.559Z,100735.88
2022-11-29T23:46:12.061Z,100733.25
2022-11-29T23:48:50.365Z,100738.47
2022-11-29T23:51:27.871Z,100743.69
2022-11-29T23:54:05.832Z,100748.88
2022-11-29T23:56:39.328Z,100742.78
2022-11-29T23:59:23.779Z,100746.13
